createdAt,value
2022-10-01T00:01:16.878Z,8.27
2022-10-01T00:03:43.675Z,8.28
2022-10-01T00:06:09.947Z,8.30
2022-10-01T00:08:38.006Z,8.28
2022-10-01T00:11:23.976Z,8.35
2022-10-01T00:13:52.045Z,8.28
2022-10-01T00:16:24.276Z,8.29
2022-10-01T00:18:52.555Z,8.33
2022-10-01T00:21:21.760Z,8.29
2022-10-01T00:23:53.230Z,8.32
2022-10-01T00:26:22.576Z,8.27
2022-10-01T00:28:54.036Z,8.25
2022-10-01T00:31:23.339Z,8.29
2022-10-01T00:33:54.726Z,8.29
2022-10-01T00:36:21.294Z,8.27
2022-10-01T00:38:50.365Z,8.26
2022-10-01T00:41:18.131Z,8.26
2022-10-01T00:43:55.741Z,8.27
2022-10-01T00:46:29.428Z,8.27
2022-10-01T00:49:01.038Z,8.28
2022-10-01T00:51:32.820Z,8.31
2022-10-01T00:54:11.157Z,8.31
2022-10-01T00:56:41.461Z,8.33
2022-10-01T00:59:08.224Z,8.34
2022-10-01T01:01:36.928Z,8.43
2022-10-01T01:04:03.694Z,8.45
2022-10-01T01:06:30.210Z,8.49
2022-10-01T01:09:03.347Z,8.45
2022-10-01T01:11:48.180Z,8.50
2022-10-01T01:14:34.001Z,8.48
2022-10-01T01:17:26.519Z,8.52
2022-10-01T01:20:31.097Z,8.51
2022-10-01T01:23:38.413Z,8.51
2022-10-01T01:26:42.291Z,8.50
2022-10-01T01:29:46.528Z,8.51
2022-10-01T01:32:50.169Z,8.52
2022-10-01T01:35:53.718Z,8.50
2022-10-01T01:38:57.810Z,8.48
2022-10-01T01:42:02.723Z,8.52
2022-10-01T01:45:09.764Z,8.52
2022-10-01T01:48:15.921Z,8.60
2022-10-01T01:51:20.084Z,8.59
2022-10-01T01:54:29.413Z,8.58
2022-10-01T01:57:33.818Z,8.57
2022-10-01T02:00:37.635Z,8.53
2022-10-01T02:03:41.787Z,8.52
2022-10-01T02:06:45.793Z,8.52
2022-10-01T02:09:50.054Z,8.53
2022-10-01T02:12:53.975Z,8.55
2022-10-01T02:16:00.085Z,8.56
2022-10-01T02:18:50.528Z,8.56
2022-10-01T02:21:32.968Z,8.59
2022-10-01T02:24:03.037Z,8.58
2022-10-01T02:26:31.038Z,8.61
2022-10-01T02:29:03.472Z,8.62
2022-10-01T02:31:31.300Z,8.67
2022-10-01T02:34:02.163Z,8.71
2022-10-01T02:36:33.038Z,8.70
2022-10-01T02:39:02.164Z,8.70
2022-10-01T02:41:33.803Z,8.71
2022-10-01T02:44:10.471Z,8.72
2022-10-01T02:47:02.829Z,8.74
2022-10-01T02:49:31.012Z,8.81
2022-10-01T02:52:15.557Z,8.78
2022-10-01T02:55:05.062Z,8.82
2022-10-01T02:57:32.840Z,8.83
2022-10-01T03:00:01.743Z,8.83
2022-10-01T03:02:31.429Z,8.82
2022-10-01T03:04:58.317Z,8.84
2022-10-01T03:07:30.465Z,8.84
2022-10-01T03:10:00.638Z,8.86
2022-10-01T03:12:27.498Z,8.88
2022-10-01T03:14:53.953Z,8.88
2022-10-01T03:17:20.713Z,8.91
2022-10-01T03:19:47.173Z,8.97
2022-10-01T03:22:15.807Z,8.97
2022-10-01T03:24:42.205Z,9.06
2022-10-01T03:27:08.638Z,9.02
2022-10-01T03:29:35.039Z,9.07
2022-10-01T03:32:01.825Z,9.12
2022-10-01T03:34:31.376Z,9.06
2022-10-01T03:36:57.744Z,9.06
2022-10-01T03:39:24.259Z,9.10
2022-10-01T03:41:50.579Z,9.13
2022-10-01T03:44:21.535Z,9.19
2022-10-01T03:46:47.989Z,9.22
2022-10-01T03:49:14.418Z,9.25
2022-10-01T03:51:40.883Z,9.27
2022-10-01T03:54:08.361Z,9.23
2022-10-01T03:56:35.909Z,9.28
2022-10-01T03:59:04.579Z,9.35
2022-10-01T04:01:31.338Z,9.36
2022-10-01T04:04:00.614Z,9.36
2022-10-01T04:06:27.068Z,9.34
2022-10-01T04:08:53.486Z,9.36
2022-10-01T04:11:22.399Z,9.37
2022-10-01T04:13:51.177Z,9.40
2022-10-01T04:16:17.640Z,9.40
2022-10-01T04:18:44.129Z,9.38
2022-10-01T04:21:12.657Z,9.41
2022-10-01T04:23:39.558Z,9.42
2022-10-01T04:26:08.506Z,9.44
2022-10-01T04:28:35.132Z,9.46
2022-10-01T04:31:20.515Z,9.45
2022-10-01T04:33:46.946Z,9.44
2022-10-01T04:36:13.576Z,9.44
2022-10-01T04:38:40.037Z,9.48
2022-10-01T04:41:06.878Z,9.47
2022-10-01T04:43:38.144Z,9.47
2022-10-01T04:46:08.081Z,9.47
2022-10-01T04:48:36.981Z,9.47
2022-10-01T04:51:03.490Z,9.45
2022-10-01T04:53:32.298Z,9.48
2022-10-01T04:55:58.708Z,9.49
2022-10-01T04:58:25.136Z,9.48
2022-10-01T05:00:51.634Z,9.47
2022-10-01T05:03:18.472Z,9.45
2022-10-01T05:05:44.903Z,9.47
2022-10-01T05:08:13.696Z,9.50
2022-10-01T05:10:42.657Z,9.53
2022-10-01T05:13:11.344Z,9.53
2022-10-01T05:15:38.497Z,9.51
2022-10-01T05:18:05.402Z,9.51
2022-10-01T05:20:33.912Z,9.56
2022-10-01T05:23:05.555Z,9.55
2022-10-01T05:25:34.073Z,9.57
2022-10-01T05:28:05.214Z,9.55
2022-10-01T05:30:32.875Z,9.55
2022-10-01T05:33:01.656Z,9.57
2022-10-01T05:35:28.471Z,9.57
2022-10-01T05:37:59.871Z,9.57
2022-10-01T05:40:28.451Z,9.53
2022-10-01T05:42:58.554Z,9.53
2022-10-01T05:45:27.699Z,9.55
2022-10-01T05:48:00.755Z,9.53
2022-10-01T05:50:31.310Z,9.50
2022-10-01T05:52:57.871Z,9.54
2022-10-01T05:55:24.456Z,9.55
2022-10-01T05:57:58.855Z,9.57
2022-10-01T06:00:31.066Z,9.57
2022-10-01T06:02:59.229Z,9.63
2022-10-01T06:05:27.305Z,9.62
2022-10-01T06:07:55.179Z,9.65
2022-10-01T06:10:22.839Z,9.66
2022-10-01T06:12:49.610Z,9.67
2022-10-01T06:15:18.857Z,9.68
2022-10-01T06:17:45.455Z,9.68
2022-10-01T06:20:17.133Z,9.73
2022-10-01T06:22:54.080Z,9.73
2022-10-01T06:25:20.674Z,9.75
2022-10-01T06:27:55.374Z,9.78
2022-10-01T06:30:22.555Z,9.82
2022-10-01T06:32:56.100Z,9.79
2022-10-01T06:35:30.144Z,9.85
2022-10-01T06:37:56.599Z,9.87
2022-10-01T06:40:24.530Z,9.85
2022-10-01T06:42:56.005Z,9.85
2022-10-01T06:45:23.336Z,9.90
2022-10-01T06:48:05.379Z,9.93
2022-10-01T06:50:32.728Z,9.96
2022-10-01T06:53:00.030Z,9.97
2022-10-01T06:55:29.607Z,9.97
2022-10-01T06:57:58.411Z,10.00
2022-10-01T07:00:26.756Z,10.00
2022-10-01T07:02:53.364Z,10.04
2022-10-01T07:05:19.953Z,10.04
2022-10-01T07:07:47.738Z,10.06
2022-10-01T07:10:15.404Z,10.08
2022-10-01T07:12:42.108Z,10.09
2022-10-01T07:15:09.448Z,10.10
2022-10-01T07:17:43.947Z,10.12
2022-10-01T07:20:10.746Z,10.14
2022-10-01T07:22:37.140Z,10.16
2022-10-01T07:25:03.713Z,10.18
2022-10-01T07:27:30.097Z,10.22
2022-10-01T07:29:59.087Z,10.25
2022-10-01T07:32:26.139Z,10.25
2022-10-01T07:34:52.564Z,10.28
2022-10-01T07:37:21.526Z,10.30
2022-10-01T07:39:50.211Z,10.33
2022-10-01T07:42:17.075Z,10.35
2022-10-01T07:44:43.411Z,10.40
2022-10-01T07:47:12.202Z,10.41
2022-10-01T07:49:38.574Z,10.43
2022-10-01T07:52:12.359Z,10.45
2022-10-01T07:54:39.655Z,10.45
2022-10-01T07:57:06.026Z,10.43
2022-10-01T07:59:33.135Z,10.42
2022-10-01T08:02:00.896Z,10.44
2022-10-01T08:04:45.947Z,10.46
2022-10-01T08:07:12.437Z,10.47
2022-10-01T08:09:39.801Z,10.47
2022-10-01T08:12:08.615Z,10.44
2022-10-01T08:14:37.594Z,10.45
2022-10-01T08:17:04.085Z,10.44
2022-10-01T08:19:30.836Z,10.48
2022-10-01T08:21:57.198Z,10.47
2022-10-01T08:24:23.617Z,10.48
2022-10-01T08:26:55.868Z,10.48
2022-10-01T08:29:22.308Z,10.50
2022-10-01T08:31:49.066Z,10.50
2022-10-01T08:34:15.577Z,10.49
2022-10-01T08:36:41.997Z,10.48
2022-10-01T08:39:11.834Z,10.49
2022-10-01T08:41:50.328Z,10.51
2022-10-01T08:44:21.664Z,10.52
2022-10-01T08:46:50.171Z,10.51
2022-10-01T08:49:22.303Z,10.50
2022-10-01T08:52:10.302Z,10.51
2022-10-01T08:54:52.983Z,10.48
2022-10-01T08:57:23.872Z,10.49
2022-10-01T09:00:03.810Z,10.53
2022-10-01T09:02:39.856Z,10.56
2022-10-01T09:05:52.610Z,10.62
2022-10-01T09:08:54.886Z,10.63
2022-10-01T09:11:53.623Z,10.71
2022-10-01T09:14:53.892Z,10.72
2022-10-01T09:17:51.220Z,10.73
2022-10-01T09:20:26.944Z,10.72
2022-10-01T09:23:15.318Z,10.76
2022-10-01T09:25:45.785Z,10.77
2022-10-01T09:28:35.323Z,10.79
2022-10-01T09:31:06.726Z,10.84
2022-10-01T09:33:41.298Z,10.88
2022-10-01T09:36:39.488Z,10.85
2022-10-01T09:39:41.649Z,10.86
2022-10-01T09:42:18.511Z,10.89
2022-10-01T09:44:47.461Z,10.94
2022-10-01T09:47:20.433Z,10.96
2022-10-01T09:49:49.301Z,11.02
2022-10-01T09:52:34.546Z,11.10
2022-10-01T09:55:25.313Z,11.06
2022-10-01T09:58:08.294Z,11.04
2022-10-01T10:00:36.565Z,11.07
2022-10-01T10:03:05.482Z,11.06
2022-10-01T10:05:46.564Z,11.04
2022-10-01T10:08:20.171Z,11.06
2022-10-01T10:10:54.168Z,11.08
2022-10-01T10:13:31.624Z,11.06
2022-10-01T10:15:59.771Z,11.10
2022-10-01T10:18:34.480Z,11.17
2022-10-01T10:21:29.528Z,11.17
2022-10-01T10:24:04.253Z,11.26
2022-10-01T10:26:35.276Z,11.30
2022-10-01T10:29:06.270Z,11.29
2022-10-01T10:31:44.727Z,11.30
2022-10-01T10:34:16.634Z,11.32
2022-10-01T10:36:45.543Z,11.38
2022-10-01T10:39:23.460Z,11.57
2022-10-01T10:41:51.866Z,11.64
2022-10-01T10:44:21.300Z,11.69
2022-10-01T10:46:49.966Z,11.73
2022-10-01T10:50:01.011Z,11.78
2022-10-01T10:52:36.793Z,11.93
2022-10-01T10:55:22.699Z,11.99
2022-10-01T10:57:49.376Z,12.06
2022-10-01T11:00:18.651Z,12.16
2022-10-01T11:02:56.983Z,12.22
2022-10-01T11:05:27.345Z,12.37
2022-10-01T11:07:59.445Z,12.42
2022-10-01T11:10:36.110Z,12.53
2022-10-01T11:13:21.540Z,12.62
2022-10-01T11:15:50.839Z,12.57
2022-10-01T11:18:33.777Z,12.66
2022-10-01T11:21:21.569Z,12.66
2022-10-01T11:24:10.748Z,12.60
2022-10-01T11:26:55.749Z,12.65
2022-10-01T11:29:31.050Z,12.66
2022-10-01T11:32:02.791Z,12.92
2022-10-01T11:34:54.034Z,12.87
2022-10-01T11:38:00.085Z,12.93
2022-10-01T11:40:36.698Z,13.02
2022-10-01T11:43:21.180Z,12.94
2022-10-01T11:45:55.741Z,12.94
2022-10-01T11:48:33.857Z,13.04
2022-10-01T11:51:05.677Z,13.01
2022-10-01T11:53:38.742Z,13.03
2022-10-01T11:56:30.616Z,13.03
2022-10-01T11:59:10.827Z,12.92
2022-10-01T12:01:45.369Z,12.94
2022-10-01T12:04:11.832Z,12.91
2022-10-01T12:06:53.098Z,13.04
2022-10-01T12:09:31.711Z,13.01
2022-10-01T12:12:06.745Z,13.11
2022-10-01T12:15:06.498Z,12.97
2022-10-01T12:17:40.165Z,13.26
2022-10-01T12:20:18.316Z,13.42
2022-10-01T12:22:46.016Z,13.57
2022-10-01T12:25:13.202Z,13.94
2022-10-01T12:28:02.219Z,13.89
2022-10-01T12:30:36.850Z,13.85
2022-10-01T12:33:16.893Z,13.75
2022-10-01T12:35:55.421Z,13.55
2022-10-01T12:38:30.879Z,13.40
2022-10-01T12:41:08.314Z,13.40
2022-10-01T12:43:40.842Z,13.44
2022-10-01T12:46:35.405Z,13.46
2022-10-01T12:49:30.530Z,13.54
2022-10-01T12:52:24.729Z,13.73
2022-10-01T12:55:13.209Z,13.80
2022-10-01T12:58:21.879Z,13.85
2022-10-01T13:01:00.372Z,13.89
2022-10-01T13:03:37.429Z,13.95
2022-10-01T13:06:35.489Z,13.92
2022-10-01T13:09:02.234Z,13.98
2022-10-01T13:11:46.764Z,13.97
2022-10-01T13:14:17.350Z,13.84
2022-10-01T13:16:58.189Z,13.73
2022-10-01T13:19:30.288Z,13.67
2022-10-01T13:22:00.261Z,13.66
2022-10-01T13:24:38.140Z,13.60
2022-10-01T13:27:24.092Z,13.59
2022-10-01T13:30:07.510Z,13.52
2022-10-01T13:32:50.907Z,13.50
2022-10-01T13:35:36.539Z,13.50
2022-10-01T13:38:29.002Z,13.49
2022-10-01T13:41:04.555Z,13.52
2022-10-01T13:43:34.127Z,13.57
2022-10-01T13:46:09.561Z,13.73
2022-10-01T13:48:45.206Z,13.95
2022-10-01T13:51:14.126Z,13.97
2022-10-01T13:53:43.515Z,14.01
2022-10-01T13:56:15.550Z,14.04
2022-10-01T13:58:45.825Z,13.94
2022-10-01T14:01:24.351Z,13.90
2022-10-01T14:03:57.355Z,13.82
2022-10-01T14:06:38.429Z,13.83
2022-10-01T14:09:27.274Z,13.75
2022-10-01T14:12:38.762Z,13.76
2022-10-01T14:15:38.830Z,13.78
2022-10-01T14:18:24.989Z,13.89
2022-10-01T14:20:51.400Z,13.89
2022-10-01T14:23:29.913Z,13.89
2022-10-01T14:26:08.603Z,14.02
2022-10-01T14:28:43.222Z,14.19
2022-10-01T14:31:21.218Z,14.26
2022-10-01T14:34:13.845Z,14.27
2022-10-01T14:36:53.944Z,14.27
2022-10-01T14:39:21.956Z,14.30
2022-10-01T14:41:51.444Z,14.23
2022-10-01T14:44:19.247Z,14.28
2022-10-01T14:46:45.858Z,14.29
2022-10-01T14:49:21.394Z,14.24
2022-10-01T14:51:57.350Z,14.21
2022-10-01T14:54:24.426Z,14.18
2022-10-01T14:56:52.297Z,14.18
2022-10-01T14:59:30.609Z,14.17
2022-10-01T15:02:02.795Z,14.21
2022-10-01T15:04:29.460Z,14.20
2022-10-01T15:07:06.769Z,14.20
2022-10-01T15:09:36.607Z,14.19
2022-10-01T15:12:05.864Z,14.19
2022-10-01T15:14:32.851Z,14.19
2022-10-01T15:17:07.487Z,14.20
2022-10-01T15:19:43.468Z,14.15
2022-10-01T15:22:12.823Z,14.13
2022-10-01T15:24:49.336Z,14.14
2022-10-01T15:27:19.657Z,14.14
2022-10-01T15:29:55.984Z,14.09
2022-10-01T15:32:27.987Z,14.12
2022-10-01T15:35:01.620Z,14.08
2022-10-01T15:37:33.636Z,14.05
2022-10-01T15:40:01.445Z,14.00
2022-10-01T15:42:36.640Z,13.96
2022-10-01T15:45:09.442Z,13.95
2022-10-01T15:47:40.132Z,13.86
2022-10-01T15:50:12.399Z,13.82
2022-10-01T15:52:50.516Z,13.76
2022-10-01T15:55:25.826Z,13.69
2022-10-01T15:58:02.970Z,13.64
2022-10-01T16:00:32.196Z,13.59
2022-10-01T16:02:59.102Z,13.53
2022-10-01T16:05:31.542Z,13.48
2022-10-01T16:07:58.472Z,13.44
2022-10-01T16:10:42.860Z,13.41
2022-10-01T16:13:36.531Z,13.37
2022-10-01T16:16:23.797Z,13.34
2022-10-01T16:19:19.084Z,13.31
2022-10-01T16:22:19.184Z,13.29
2022-10-01T16:24:57.793Z,13.28
2022-10-01T16:27:35.267Z,13.25
2022-10-01T16:30:08.898Z,13.22
2022-10-01T16:32:35.620Z,13.23
2022-10-01T16:35:18.187Z,13.23
2022-10-01T16:37:50.599Z,13.23
2022-10-01T16:40:18.265Z,13.25
2022-10-01T16:42:46.087Z,13.23
2022-10-01T16:45:17.998Z,13.24
2022-10-01T16:47:45.686Z,13.26
2022-10-01T16:50:14.217Z,13.25
2022-10-01T16:52:40.639Z,13.27
2022-10-01T16:55:22.902Z,13.29
2022-10-01T16:57:51.815Z,13.26
2022-10-01T17:00:19.804Z,13.28
2022-10-01T17:02:46.552Z,13.26
2022-10-01T17:05:18.512Z,13.26
2022-10-01T17:07:45.195Z,13.23
2022-10-01T17:10:16.483Z,13.22
2022-10-01T17:12:43.948Z,13.21
2022-10-01T17:15:15.643Z,13.20
2022-10-01T17:17:42.035Z,13.18
2022-10-01T17:20:09.306Z,13.17
2022-10-01T17:22:35.777Z,13.16
2022-10-01T17:25:02.294Z,13.16
2022-10-01T17:27:31.072Z,13.15
2022-10-01T17:30:00.000Z,13.14
2022-10-01T17:32:26.424Z,13.12
2022-10-01T17:34:55.407Z,13.11
2022-10-01T17:37:23.897Z,13.10
2022-10-01T17:39:50.407Z,13.08
2022-10-01T17:42:19.468Z,13.09
2022-10-01T17:44:45.862Z,13.06
2022-10-01T17:47:12.706Z,13.07
2022-10-01T17:49:39.378Z,13.06
2022-10-01T17:52:06.939Z,13.05
2022-10-01T17:54:35.668Z,13.08
2022-10-01T17:57:02.061Z,13.08
2022-10-01T17:59:29.908Z,13.06
2022-10-01T18:01:59.782Z,13.09
2022-10-01T18:04:26.448Z,13.07
2022-10-01T18:06:57.932Z,13.06
2022-10-01T18:09:26.110Z,13.05
2022-10-01T18:11:52.486Z,13.07
2022-10-01T18:14:21.610Z,13.07
2022-10-01T18:16:48.391Z,13.08
2022-10-01T18:22:01.654Z,13.07
2022-10-01T18:24:29.001Z,13.12
2022-10-01T18:26:56.377Z,13.17
2022-10-01T18:29:26.434Z,13.14
2022-10-01T18:32:14.019Z,13.18
2022-10-01T18:34:47.635Z,13.17
2022-10-01T18:37:30.213Z,13.19
2022-10-01T18:40:04.999Z,13.18
2022-10-01T18:42:37.011Z,13.18
2022-10-01T18:45:12.802Z,13.17
2022-10-01T18:48:00.236Z,13.19
2022-10-01T18:50:57.579Z,13.18
2022-10-01T18:53:58.422Z,13.17
2022-10-01T18:56:40.510Z,13.17
2022-10-01T18:59:18.850Z,13.17
2022-10-01T19:02:23.200Z,13.17
2022-10-01T19:05:12.895Z,13.18
2022-10-01T19:07:52.092Z,13.20
2022-10-01T19:10:27.498Z,13.20
2022-10-01T19:13:34.958Z,13.20
2022-10-01T19:16:51.138Z,13.18
2022-10-01T19:19:23.031Z,13.17
2022-10-01T19:22:21.920Z,13.16
2022-10-01T19:25:16.706Z,13.14
2022-10-01T19:28:05.738Z,13.16
2022-10-01T19:30:53.544Z,13.16
2022-10-01T19:33:22.522Z,13.16
2022-10-01T19:35:53.467Z,13.16
2022-10-01T19:38:40.716Z,13.16
2022-10-01T19:41:26.506Z,13.18
2022-10-01T19:44:02.749Z,13.16
2022-10-01T19:46:34.885Z,13.14
2022-10-01T19:49:08.510Z,13.13
2022-10-01T19:51:38.725Z,13.11
2022-10-01T19:54:22.305Z,13.07
2022-10-01T19:56:56.365Z,13.04
2022-10-01T19:59:22.852Z,13.04
2022-10-01T20:01:53.044Z,13.03
2022-10-01T20:04:38.106Z,13.03
2022-10-01T20:07:19.059Z,13.04
2022-10-01T20:09:52.891Z,13.03
2022-10-01T20:12:26.240Z,13.04
2022-10-01T20:15:08.764Z,13.03
2022-10-01T20:18:13.159Z,13.08
2022-10-01T20:20:54.544Z,13.10
2022-10-01T20:23:30.136Z,13.10
2022-10-01T20:26:08.116Z,13.08
2022-10-01T20:28:56.744Z,13.13
2022-10-01T20:31:30.972Z,13.12
2022-10-01T20:34:15.034Z,13.13
2022-10-01T20:36:50.661Z,13.12
2022-10-01T20:39:28.506Z,13.16
2022-10-01T20:41:58.046Z,13.16
2022-10-01T20:44:28.991Z,13.18
2022-10-01T20:47:02.063Z,13.16
2022-10-01T20:49:38.593Z,13.15
2022-10-01T20:52:47.427Z,13.19
2022-10-01T20:55:18.176Z,13.18
2022-10-01T20:57:44.605Z,13.17
2022-10-01T21:00:19.996Z,13.15
2022-10-01T21:02:55.685Z,13.14
2022-10-01T21:05:28.261Z,13.11
2022-10-01T21:08:17.116Z,13.10
2022-10-01T21:10:59.488Z,13.11
2022-10-01T21:13:32.103Z,13.14
2022-10-01T21:16:08.555Z,13.12
2022-10-01T21:18:59.305Z,13.13
2022-10-01T21:21:57.561Z,13.12
2022-10-01T21:24:44.113Z,13.08
2022-10-01T21:27:19.272Z,13.06
2022-10-01T21:30:08.860Z,13.05
2022-10-01T21:32:35.254Z,13.07
2022-10-01T21:35:16.951Z,13.06
2022-10-01T21:37:57.890Z,13.10
2022-10-01T21:40:38.406Z,13.07
2022-10-01T21:43:26.451Z,13.06
2022-10-01T21:46:32.647Z,13.06
2022-10-01T21:49:40.983Z,13.12
2022-10-01T21:52:32.665Z,13.12
2022-10-01T21:55:20.942Z,13.07
2022-10-01T21:58:10.741Z,13.04
2022-10-01T22:00:39.611Z,13.04
2022-10-01T22:03:19.637Z,13.13
2022-10-01T22:06:12.853Z,13.11
2022-10-01T22:09:04.320Z,13.17
2022-10-01T22:11:41.987Z,13.16
2022-10-01T22:14:19.913Z,13.17
2022-10-01T22:16:57.810Z,13.17
2022-10-01T22:19:38.787Z,13.17
2022-10-01T22:22:11.088Z,13.16
2022-10-01T22:24:49.231Z,13.16
2022-10-01T22:27:23.967Z,13.15
2022-10-01T22:30:06.137Z,13.14
2022-10-01T22:32:45.023Z,13.12
2022-10-01T22:35:19.819Z,13.12
2022-10-01T22:37:55.235Z,13.13
2022-10-01T22:40:27.082Z,13.11
2022-10-01T22:43:11.137Z,13.12
2022-10-01T22:45:49.705Z,13.05
2022-10-01T22:48:46.101Z,13.07
2022-10-01T22:51:21.649Z,13.08
2022-10-01T22:54:09.195Z,13.05
2022-10-01T22:56:53.098Z,13.05
2022-10-01T22:59:35.470Z,13.08
2022-10-01T23:02:28.221Z,13.07
2022-10-01T23:05:03.770Z,13.04
2022-10-01T23:07:45.130Z,13.02
2022-10-01T23:10:23.465Z,13.03
2022-10-01T23:13:16.090Z,13.04
2022-10-01T23:15:58.219Z,13.04
2022-10-01T23:18:48.647Z,13.05
2022-10-01T23:21:32.598Z,13.13
2022-10-01T23:24:32.284Z,13.13
2022-10-01T23:27:10.013Z,13.17
2022-10-01T23:29:51.147Z,13.16
2022-10-01T23:32:35.084Z,13.15
2022-10-01T23:35:35.500Z,13.16
2022-10-01T23:38:37.253Z,13.16
2022-10-01T23:41:14.138Z,13.18
2022-10-01T23:43:46.817Z,13.20
2022-10-01T23:46:18.915Z,13.19
2022-10-01T23:48:53.078Z,13.19
2022-10-01T23:51:35.993Z,13.21
2022-10-01T23:54:22.102Z,13.22
2022-10-01T23:57:18.723Z,13.21
2022-10-01T23:59:55.266Z,13.20
